createdAt,value
2018-08-20T00:00:40.688Z,0
2018-08-20T00:01:42.239Z,0
2018-08-20T00:02:44.098Z,0
2018-08-20T00:03:45.609Z,0
2018-08-20T00:04:47.275Z,0
2018-08-20T00:05:48.852Z,0
2018-08-20T00:06:50.488Z,0
2018-08-20T00:07:52.145Z,0
2018-08-20T00:08:53.645Z,0
2018-08-20T00:09:55.298Z,0
2018-08-20T00:10:56.879Z,0
2018-08-20T00:11:58.483Z,0
2018-08-20T00:13:00.185Z,0
2018-08-20T00:14:01.764Z,0
2018-08-20T00:15:03.530Z,0
2018-08-20T00:16:05.045Z,0
2018-08-20T00:17:06.727Z,0
2018-08-20T00:18:08.345Z,0
2018-08-20T00:19:10.122Z,0
2018-08-20T00:20:11.638Z,0
2018-08-20T00:21:13.370Z,0
2018-08-20T00:22:14.968Z,0
2018-08-20T00:23:16.527Z,0
2018-08-20T00:24:18.269Z,0
2018-08-20T00:25:19.794Z,0
2018-08-20T00:26:21.357Z,0
2018-08-20T00:27:23.055Z,0
2018-08-20T00:28:24.480Z,0
2018-08-20T00:29:25.906Z,0
2018-08-20T00:30:27.390Z,0
2018-08-20T00:31:28.951Z,0
2018-08-20T00:32:30.803Z,0
2018-08-20T00:33:32.540Z,0
2018-08-20T00:34:34.055Z,0
2018-08-20T00:35:35.864Z,0
2018-08-20T00:36:37.403Z,0
2018-08-20T00:37:38.973Z,0
2018-08-20T00:38:40.679Z,0
2018-08-20T00:39:42.210Z,0
2018-08-20T00:40:43.761Z,0
2018-08-20T00:41:45.464Z,0
2018-08-20T00:42:47.066Z,0
2018-08-20T00:43:48.715Z,0
2018-08-20T00:44:50.319Z,0
2018-08-20T00:45:52.063Z,0
2018-08-20T00:46:53.619Z,0
2018-08-20T00:47:55.290Z,0
2018-08-20T00:48:56.840Z,0
2018-08-20T00:49:58.555Z,0
2018-08-20T00:51:00.201Z,0
2018-08-20T00:52:01.899Z,0
2018-08-20T00:53:03.469Z,0
2018-08-20T00:54:05.228Z,0
2018-08-20T00:55:06.785Z,0
2018-08-20T00:56:08.447Z,0
2018-08-20T00:57:09.981Z,0
2018-08-20T00:58:11.853Z,0
2018-08-20T00:59:13.445Z,0
2018-08-20T01:00:15.072Z,0
2018-08-20T01:01:16.614Z,0
2018-08-20T01:02:18.156Z,0
2018-08-20T01:03:19.763Z,0
2018-08-20T01:04:21.370Z,0
2018-08-20T01:05:22.895Z,0
2018-08-20T01:06:24.564Z,0
2018-08-20T01:07:26.076Z,0
2018-08-20T01:08:27.674Z,0
2018-08-20T01:09:29.222Z,0
2018-08-20T01:10:30.828Z,0
2018-08-20T01:11:32.367Z,0
2018-08-20T01:12:33.963Z,0
2018-08-20T01:13:35.494Z,0
2018-08-20T01:14:37.057Z,0
2018-08-20T01:15:39.103Z,0
2018-08-20T01:16:40.714Z,0
2018-08-20T01:17:42.314Z,0
2018-08-20T01:18:44.092Z,0
2018-08-20T01:19:45.598Z,0
2018-08-20T01:20:47.196Z,0
2018-08-20T01:21:49.237Z,0
2018-08-20T01:22:50.754Z,0
2018-08-20T01:23:52.931Z,0
2018-08-20T01:24:54.471Z,0
2018-08-20T01:25:56.144Z,0
2018-08-20T01:26:57.676Z,0
2018-08-20T01:27:59.428Z,0
2018-08-20T01:29:01.129Z,0
2018-08-20T01:30:02.645Z,0
2018-08-20T01:31:04.542Z,0
2018-08-20T01:32:06.264Z,0
2018-08-20T01:33:07.773Z,0
2018-08-20T01:34:09.804Z,0
2018-08-20T01:35:11.688Z,0
2018-08-20T01:36:13.249Z,0
2018-08-20T01:37:14.832Z,0
2018-08-20T01:38:16.583Z,0
2018-08-20T01:39:18.200Z,0
2018-08-20T01:40:19.711Z,0
2018-08-20T01:41:21.490Z,0
2018-08-20T01:42:23.065Z,0
2018-08-20T01:43:24.828Z,0
2018-08-20T01:44:26.727Z,0
2018-08-20T01:45:28.291Z,0
2018-08-20T01:46:29.917Z,0
2018-08-20T01:47:31.500Z,0
2018-08-20T01:48:33.189Z,0
2018-08-20T01:49:34.749Z,0
2018-08-20T01:50:36.597Z,0
2018-08-20T01:51:38.122Z,0
2018-08-20T01:52:39.986Z,0
2018-08-20T01:53:41.580Z,0
2018-08-20T01:54:43.386Z,0
2018-08-20T01:55:44.935Z,0
2018-08-20T01:56:46.651Z,0
2018-08-20T01:57:48.197Z,0
2018-08-20T01:58:50.006Z,0
2018-08-20T01:59:51.581Z,0
2018-08-20T02:00:53.425Z,0
2018-08-20T02:01:54.976Z,0
2018-08-20T02:02:56.691Z,0
2018-08-20T02:03:58.449Z,0
2018-08-20T02:04:59.859Z,0
2018-08-20T02:06:01.295Z,0
2018-08-20T02:07:02.957Z,0
2018-08-20T02:08:04.511Z,0
2018-08-20T02:09:06.105Z,0
2018-08-20T02:10:08.002Z,0
2018-08-20T02:11:09.525Z,0
2018-08-20T02:12:11.070Z,0
2018-08-20T02:13:12.836Z,0
2018-08-20T02:14:14.359Z,0
2018-08-20T02:15:15.878Z,0
2018-08-20T02:16:17.588Z,0
2018-08-20T02:17:19.157Z,0
2018-08-20T02:18:21.037Z,0
2018-08-20T02:19:22.542Z,0
2018-08-20T02:20:24.093Z,0
2018-08-20T02:21:25.777Z,0
2018-08-20T02:22:27.319Z,0
2018-08-20T02:23:28.874Z,0
2018-08-20T02:24:30.705Z,0
2018-08-20T02:25:32.305Z,0
2018-08-20T02:26:34.038Z,0
2018-08-20T02:27:35.698Z,0
2018-08-20T02:28:37.255Z,0
2018-08-20T02:29:39.120Z,0
2018-08-20T02:30:40.663Z,0
2018-08-20T02:31:42.202Z,0
2018-08-20T02:32:44.082Z,0
2018-08-20T02:33:45.634Z,0
2018-08-20T02:34:47.224Z,0
2018-08-20T02:35:48.975Z,0
2018-08-20T02:36:50.545Z,0
2018-08-20T02:37:52.084Z,0
2018-08-20T02:38:53.984Z,0
2018-08-20T02:39:55.609Z,0
2018-08-20T02:40:57.133Z,0
2018-08-20T02:41:58.885Z,0
2018-08-20T02:43:00.359Z,0
2018-08-20T02:44:01.880Z,0
2018-08-20T02:45:03.634Z,0
2018-08-20T02:46:05.219Z,0
2018-08-20T02:47:06.880Z,0
2018-08-20T02:48:08.473Z,0
2018-08-20T02:49:10.105Z,0
2018-08-20T02:50:11.802Z,0
2018-08-20T02:51:13.387Z,0
2018-08-20T02:52:14.896Z,0
2018-08-20T02:53:16.804Z,0
2018-08-20T02:54:18.337Z,0
2018-08-20T02:55:19.943Z,0
2018-08-20T02:56:21.637Z,0
2018-08-20T02:57:23.172Z,0
2018-08-20T02:58:24.703Z,0
2018-08-20T02:59:26.404Z,0
2018-08-20T03:00:27.914Z,0
2018-08-20T03:01:29.489Z,0
2018-08-20T03:02:31.091Z,0
2018-08-20T03:03:32.668Z,0
2018-08-20T03:04:34.476Z,0
2018-08-20T03:05:36.020Z,0
2018-08-20T03:06:37.775Z,0
2018-08-20T03:07:40.816Z,0
2018-08-20T03:08:42.249Z,0
2018-08-20T03:09:44.143Z,0
2018-08-20T03:10:45.645Z,0
2018-08-20T03:11:47.157Z,0
2018-08-20T03:12:49.888Z,0
2018-08-20T03:13:51.485Z,0
2018-08-20T03:14:53.349Z,0
2018-08-20T03:15:54.887Z,0
2018-08-20T03:16:56.632Z,0
2018-08-20T03:17:58.202Z,0
2018-08-20T03:18:59.730Z,0
2018-08-20T03:20:01.630Z,0
2018-08-20T03:21:03.161Z,0
2018-08-20T03:22:04.723Z,0
2018-08-20T03:23:06.514Z,0
2018-08-20T03:24:08.052Z,0
2018-08-20T03:25:09.595Z,0
2018-08-20T03:26:11.453Z,0
2018-08-20T03:27:12.938Z,0
2018-08-20T03:28:14.504Z,0
2018-08-20T03:29:16.174Z,0
2018-08-20T03:30:17.764Z,0
2018-08-20T03:31:19.464Z,0
2018-08-20T03:32:21.026Z,0
2018-08-20T03:33:22.734Z,0
2018-08-20T03:34:24.252Z,0
2018-08-20T03:35:26.090Z,0
2018-08-20T03:36:27.590Z,0
2018-08-20T03:37:29.335Z,0
2018-08-20T03:38:30.951Z,0
2018-08-20T03:39:32.454Z,0
2018-08-20T03:40:34.273Z,0
2018-08-20T03:41:35.874Z,0
2018-08-20T03:42:37.411Z,0
2018-08-20T03:43:39.293Z,0
2018-08-20T03:44:40.832Z,0
2018-08-20T03:45:42.400Z,0
2018-08-20T03:46:44.186Z,0
2018-08-20T03:47:45.760Z,0
2018-08-20T03:48:47.359Z,0
2018-08-20T03:49:49.104Z,0
2018-08-20T03:50:50.691Z,0
2018-08-20T03:51:52.240Z,0
2018-08-20T03:52:53.979Z,0
2018-08-20T03:53:55.515Z,0
2018-08-20T03:54:57.050Z,0
2018-08-20T03:55:58.762Z,0
2018-08-20T03:57:00.334Z,0
2018-08-20T03:58:02.034Z,0
2018-08-20T03:59:03.567Z,0
2018-08-20T04:00:05.091Z,0
2018-08-20T04:01:06.845Z,0
2018-08-20T04:02:08.462Z,0
2018-08-20T04:03:10.029Z,0
2018-08-20T04:04:11.903Z,0
2018-08-20T04:05:13.452Z,0
2018-08-20T04:06:15.247Z,0
2018-08-20T04:07:16.755Z,0
2018-08-20T04:08:18.479Z,0
2018-08-20T04:09:20.000Z,0
2018-08-20T04:10:21.825Z,0
2018-08-20T04:11:23.396Z,0
2018-08-20T04:12:25.036Z,0
2018-08-20T04:13:26.535Z,0
2018-08-20T04:14:28.317Z,0
2018-08-20T04:15:29.838Z,0
2018-08-20T04:16:31.651Z,0
2018-08-20T04:17:33.134Z,0
2018-08-20T04:18:34.922Z,0
2018-08-20T04:19:36.482Z,0
2018-08-20T04:20:38.175Z,0
2018-08-20T04:21:39.684Z,0
2018-08-20T04:22:41.466Z,0
2018-08-20T04:23:42.970Z,0
2018-08-20T04:24:44.809Z,0
2018-08-20T04:25:46.406Z,0
2018-08-20T04:26:48.098Z,0
2018-08-20T04:27:49.664Z,0
2018-08-20T04:28:51.256Z,0
2018-08-20T04:29:52.846Z,0
2018-08-20T04:30:54.380Z,0
2018-08-20T04:31:56.012Z,0
2018-08-20T04:32:57.586Z,0
2018-08-20T04:33:59.103Z,0
2018-08-20T04:35:00.782Z,0
2018-08-20T04:36:02.351Z,0
2018-08-20T04:37:03.976Z,0
2018-08-20T04:38:05.547Z,0
2018-08-20T04:39:07.131Z,0
2018-08-20T04:40:08.700Z,0
2018-08-20T04:41:10.278Z,0
2018-08-20T04:42:11.814Z,0
2018-08-20T04:43:13.312Z,0
2018-08-20T04:44:14.738Z,0
2018-08-20T04:45:16.422Z,0
2018-08-20T04:46:17.958Z,0
2018-08-20T04:47:19.463Z,0
2018-08-20T04:48:21.067Z,0
2018-08-20T04:49:22.616Z,0
2018-08-20T04:50:24.196Z,0
2018-08-20T04:51:25.807Z,0
2018-08-20T04:52:27.203Z,5
2018-08-20T04:53:28.784Z,5
2018-08-20T04:54:30.346Z,5
2018-08-20T04:55:31.978Z,5
2018-08-20T04:56:33.404Z,5
2018-08-20T04:57:34.811Z,5
2018-08-20T04:58:36.221Z,5
2018-08-20T04:59:37.645Z,5
2018-08-20T05:00:39.080Z,5
2018-08-20T05:01:40.675Z,5
2018-08-20T05:02:42.255Z,5
2018-08-20T05:03:43.793Z,5
2018-08-20T05:04:45.294Z,5
2018-08-20T05:05:46.913Z,5
2018-08-20T05:06:48.320Z,5
2018-08-20T05:07:49.737Z,5
2018-08-20T05:08:51.340Z,5
2018-08-20T05:09:52.937Z,5
2018-08-20T05:10:54.437Z,5
2018-08-20T05:11:56.085Z,5
2018-08-20T05:12:57.657Z,5
2018-08-20T05:13:59.199Z,5
2018-08-20T05:15:00.703Z,5
2018-08-20T05:16:02.280Z,5
2018-08-20T05:17:03.809Z,5
2018-08-20T05:18:05.410Z,5
2018-08-20T05:19:06.924Z,5
2018-08-20T05:20:08.457Z,5
2018-08-20T05:21:10.024Z,5
2018-08-20T05:22:11.612Z,5
2018-08-20T05:23:13.242Z,5
2018-08-20T05:24:14.792Z,5
2018-08-20T05:25:16.322Z,5
2018-08-20T05:26:17.849Z,5
2018-08-20T05:27:19.391Z,5
2018-08-20T05:28:20.995Z,5
2018-08-20T05:29:22.521Z,5
2018-08-20T05:30:23.997Z,5
2018-08-20T05:31:25.480Z,5
2018-08-20T05:32:27.091Z,5
2018-08-20T05:33:28.641Z,5
2018-08-20T05:34:30.197Z,5
2018-08-20T05:35:31.768Z,5
2018-08-20T05:36:33.344Z,5
2018-08-20T05:37:34.887Z,5
2018-08-20T05:38:36.379Z,5
2018-08-20T05:39:37.954Z,5
2018-08-20T05:40:39.517Z,5
2018-08-20T05:41:41.138Z,5
2018-08-20T05:42:42.684Z,5
2018-08-20T05:43:44.286Z,5
2018-08-20T05:44:45.890Z,5
2018-08-20T05:45:47.445Z,5
2018-08-20T05:46:48.989Z,5
2018-08-20T05:47:50.573Z,5
2018-08-20T05:48:52.090Z,5
2018-08-20T05:49:53.622Z,5
2018-08-20T05:50:55.172Z,5
2018-08-20T05:51:56.755Z,5
2018-08-20T05:52:58.377Z,5
2018-08-20T05:54:00.002Z,5
2018-08-20T05:55:01.722Z,5
2018-08-20T05:56:03.305Z,5
2018-08-20T05:57:04.870Z,5
2018-08-20T05:58:06.458Z,5
2018-08-20T05:59:08.055Z,5
2018-08-20T06:00:09.627Z,5
2018-08-20T06:01:11.356Z,5
2018-08-20T06:02:12.962Z,10
2018-08-20T06:03:14.529Z,15
2018-08-20T06:04:16.182Z,15
2018-08-20T06:05:17.738Z,20
2018-08-20T06:06:19.312Z,25
2018-08-20T06:07:21.122Z,30
2018-08-20T06:08:22.723Z,30
2018-08-20T06:09:24.343Z,35
2018-08-20T06:10:26.181Z,30
2018-08-20T06:11:27.775Z,30
2018-08-20T06:12:29.638Z,25
2018-08-20T06:13:31.252Z,30
2018-08-20T06:14:33.074Z,30
2018-08-20T06:15:34.668Z,35
2018-08-20T06:16:36.340Z,30
2018-08-20T06:17:37.933Z,30
2018-08-20T06:18:39.652Z,25
2018-08-20T06:19:41.284Z,25
2018-08-20T06:20:42.996Z,25
2018-08-20T06:21:44.501Z,25
2018-08-20T06:22:46.242Z,20
2018-08-20T06:23:47.846Z,20
2018-08-20T06:24:49.578Z,20
2018-08-20T06:25:51.135Z,20
2018-08-20T06:26:52.808Z,20
2018-08-20T06:27:54.378Z,20
2018-08-20T06:28:55.992Z,20
2018-08-20T06:29:57.557Z,15
2018-08-20T06:30:59.171Z,15
2018-08-20T06:32:00.884Z,15
2018-08-20T06:33:02.437Z,20
2018-08-20T06:34:03.990Z,20
2018-08-20T06:35:05.691Z,20
2018-08-20T06:36:07.275Z,20
2018-08-20T06:37:08.826Z,20
2018-08-20T06:38:10.427Z,25
2018-08-20T06:39:12.025Z,20
2018-08-20T06:40:13.788Z,20
2018-08-20T06:41:15.435Z,20
2018-08-20T06:42:17.045Z,20
2018-08-20T06:43:18.522Z,20
2018-08-20T06:44:20.276Z,15
2018-08-20T06:45:21.850Z,15
2018-08-20T06:46:23.650Z,15
2018-08-20T06:47:25.163Z,15
2018-08-20T06:48:26.945Z,15
2018-08-20T06:49:28.522Z,15
2018-08-20T06:50:30.172Z,15
2018-08-20T06:51:31.769Z,15
2018-08-20T06:52:33.501Z,15
2018-08-20T06:53:34.964Z,15
2018-08-20T06:54:36.569Z,15
2018-08-20T06:55:38.267Z,15
2018-08-20T06:56:39.871Z,20
2018-08-20T06:57:41.457Z,20
2018-08-20T06:58:43.235Z,15
2018-08-20T06:59:44.838Z,20
2018-08-20T07:00:46.550Z,20
2018-08-20T07:01:49.027Z,15
2018-08-20T07:02:51.010Z,15
2018-08-20T07:03:53.013Z,15
2018-08-20T07:04:55.010Z,15
2018-08-20T07:05:56.578Z,20
2018-08-20T07:06:58.348Z,20
2018-08-20T07:07:59.882Z,25
2018-08-20T07:09:01.466Z,30
2018-08-20T07:10:03.073Z,30
2018-08-20T07:11:05.003Z,35
2018-08-20T07:12:06.562Z,30
2018-08-20T07:13:08.216Z,30
2018-08-20T07:14:09.731Z,25
2018-08-20T07:15:11.472Z,25
2018-08-20T07:16:13.057Z,30
2018-08-20T07:17:14.799Z,35
2018-08-20T07:18:16.381Z,35
2018-08-20T07:19:18.029Z,35
2018-08-20T07:20:19.620Z,30
2018-08-20T07:21:21.422Z,30
2018-08-20T07:22:22.968Z,25
2018-08-20T07:23:24.701Z,25
2018-08-20T07:24:26.151Z,25
2018-08-20T07:25:27.754Z,25
2018-08-20T07:26:29.354Z,25
2018-08-20T07:27:30.904Z,30
2018-08-20T07:28:32.469Z,30
2018-08-20T07:29:33.995Z,25
2018-08-20T07:30:35.653Z,30
2018-08-20T07:31:37.445Z,30
2018-08-20T07:32:38.988Z,25
2018-08-20T07:33:40.578Z,25
2018-08-20T07:34:42.362Z,25
2018-08-20T07:35:43.857Z,30
2018-08-20T07:36:45.382Z,35
2018-08-20T07:37:47.037Z,35
2018-08-20T07:38:48.602Z,35
2018-08-20T07:39:50.188Z,35
2018-08-20T07:40:51.857Z,40
2018-08-20T07:41:55.378Z,40
2018-08-20T07:42:56.838Z,40
2018-08-20T07:43:58.628Z,35
2018-08-20T07:45:00.158Z,40
2018-08-20T07:46:01.677Z,40
2018-08-20T07:47:03.368Z,40
2018-08-20T07:53:20.970Z,40
2018-08-20T07:54:22.368Z,40
2018-08-20T07:55:23.771Z,40
2018-08-20T07:56:25.475Z,40
2018-08-20T07:57:26.872Z,40
2018-08-20T07:58:28.275Z,40
2018-08-20T07:59:29.822Z,40
2018-08-20T08:00:31.254Z,40
2018-08-20T08:01:33.066Z,40
2018-08-20T08:02:34.736Z,45
2018-08-20T08:03:36.137Z,45
2018-08-20T08:04:37.816Z,40
2018-08-20T08:05:39.226Z,40
2018-08-20T08:06:40.810Z,40
2018-08-20T08:07:42.227Z,45
2018-08-20T08:08:43.849Z,45
2018-08-20T08:09:45.197Z,45
2018-08-20T08:10:46.870Z,45
2018-08-20T08:11:48.272Z,45
2018-08-20T08:12:50.058Z,40
2018-08-20T08:13:51.611Z,45
2018-08-20T08:14:53.013Z,40
2018-08-20T08:15:54.484Z,40
2018-08-20T08:16:56.123Z,50
2018-08-20T08:17:57.536Z,45
2018-08-20T08:18:59.226Z,40
2018-08-20T08:20:00.633Z,40
2018-08-20T08:21:02.299Z,40
2018-08-20T08:22:03.743Z,45
2018-08-20T08:23:05.662Z,45
2018-08-20T08:24:07.241Z,40
2018-08-20T08:25:08.640Z,45
2018-08-20T08:26:10.046Z,45
2018-08-20T08:27:11.762Z,50
2018-08-20T08:28:13.163Z,45
2018-08-20T08:29:14.570Z,45
2018-08-20T08:30:16.126Z,45
2018-08-20T08:31:17.533Z,45
2018-08-20T08:32:18.978Z,50
2018-08-20T08:33:21.548Z,50
2018-08-20T08:34:22.955Z,50
2018-08-20T08:35:24.356Z,50
2018-08-20T08:36:25.973Z,50
2018-08-20T08:37:27.379Z,50
2018-08-20T08:38:28.783Z,60
2018-08-20T08:39:30.477Z,55
2018-08-20T08:40:32.058Z,60
2018-08-20T08:41:33.463Z,60
2018-08-20T08:42:34.996Z,55
2018-08-20T08:43:36.408Z,55
2018-08-20T08:44:38.002Z,55
2018-08-20T08:45:39.420Z,55
2018-08-20T08:46:40.977Z,55
2018-08-20T08:47:42.381Z,60
2018-08-20T08:48:44.062Z,60
2018-08-20T08:49:45.903Z,55
2018-08-20T08:50:47.548Z,60
2018-08-20T08:51:48.952Z,55
2018-08-20T08:52:50.640Z,50
2018-08-20T08:53:52.067Z,50
2018-08-20T08:54:53.722Z,60
2018-08-20T08:55:55.242Z,55
2018-08-20T08:56:56.806Z,55
2018-08-20T08:57:58.212Z,55
2018-08-20T08:58:59.897Z,50
2018-08-20T09:00:01.301Z,50
2018-08-20T09:01:03.150Z,50
2018-08-20T09:02:04.552Z,60
2018-08-20T09:03:07.127Z,60
2018-08-20T09:04:08.736Z,50
2018-08-20T09:05:10.138Z,60
2018-08-20T09:06:11.538Z,70
2018-08-20T09:07:13.064Z,65
2018-08-20T09:08:14.485Z,60
2018-08-20T09:09:15.887Z,55
2018-08-20T09:10:17.589Z,55
2018-08-20T09:11:18.984Z,60
2018-08-20T09:12:20.522Z,70
2018-08-20T09:13:22.111Z,75
2018-08-20T09:14:23.512Z,65
2018-08-20T09:15:24.914Z,70
2018-08-20T09:16:26.437Z,75
2018-08-20T09:17:27.830Z,65
2018-08-20T09:18:29.525Z,70
2018-08-20T09:19:30.927Z,70
2018-08-20T09:20:32.616Z,85
2018-08-20T09:21:34.006Z,75
2018-08-20T09:22:35.414Z,70
2018-08-20T09:23:36.923Z,60
2018-08-20T09:24:38.330Z,60
2018-08-20T09:25:39.739Z,80
2018-08-20T09:26:41.251Z,85
2018-08-20T09:27:42.656Z,80
2018-08-20T09:28:44.340Z,90
2018-08-20T09:29:45.770Z,100
2018-08-20T09:30:47.418Z,115
2018-08-20T09:31:48.823Z,120
2018-08-20T09:32:50.237Z,110
2018-08-20T09:33:51.943Z,95
2018-08-20T09:34:53.348Z,85
2018-08-20T09:35:54.764Z,85
2018-08-20T09:36:56.387Z,70
2018-08-20T09:37:58.179Z,80
2018-08-20T09:38:59.754Z,60
2018-08-20T09:40:01.543Z,70
2018-08-20T09:41:03.048Z,55
2018-08-20T09:42:04.489Z,65
2018-08-20T09:43:06.134Z,85
2018-08-20T09:44:07.539Z,105
2018-08-20T09:45:09.221Z,105
2018-08-20T09:46:10.645Z,90
2018-08-20T09:47:12.308Z,100
2018-08-20T09:48:13.717Z,100
2018-08-20T09:49:15.392Z,105
2018-08-20T09:50:16.819Z,100
2018-08-20T09:51:19.259Z,95
2018-08-20T09:52:20.673Z,100
2018-08-20T09:53:22.207Z,100
2018-08-20T09:54:23.825Z,115
2018-08-20T09:55:25.684Z,90
2018-08-20T09:56:27.049Z,95
2018-08-20T09:57:28.580Z,115
2018-08-20T09:58:29.959Z,115
2018-08-20T09:59:31.638Z,95
2018-08-20T10:00:33.044Z,105
2018-08-20T10:01:34.725Z,145
2018-08-20T10:02:36.136Z,160
2018-08-20T10:03:37.939Z,170
2018-08-20T10:04:39.456Z,165
2018-08-20T10:05:40.864Z,165
2018-08-20T10:06:42.270Z,185
2018-08-20T10:07:44.060Z,145
2018-08-20T10:08:45.471Z,165
2018-08-20T10:09:46.884Z,190
2018-08-20T10:10:48.509Z,215
2018-08-20T10:11:49.916Z,195
2018-08-20T10:12:51.321Z,145
2018-08-20T10:13:52.830Z,105
2018-08-20T10:14:54.239Z,105
2018-08-20T10:15:55.648Z,140
2018-08-20T10:16:57.152Z,140
2018-08-20T10:17:58.555Z,155
2018-08-20T10:19:00.077Z,145
2018-08-20T10:20:01.680Z,130
2018-08-20T10:21:03.545Z,110
2018-08-20T10:22:04.967Z,130
2018-08-20T10:23:06.615Z,130
2018-08-20T10:24:08.017Z,115
2018-08-20T10:25:10.073Z,145
2018-08-20T10:26:11.480Z,170
2018-08-20T10:27:12.989Z,165
2018-08-20T10:28:14.398Z,175
2018-08-20T10:29:16.073Z,200
2018-08-20T10:30:17.916Z,200
2018-08-20T10:31:19.572Z,190
2018-08-20T10:32:20.967Z,180
2018-08-20T10:33:22.475Z,175
2018-08-20T10:34:23.874Z,170
2018-08-20T10:35:25.537Z,195
2018-08-20T10:36:26.947Z,200
2018-08-20T10:37:29.040Z,200
2018-08-20T10:38:30.417Z,190
2018-08-20T10:39:31.920Z,205
2018-08-20T10:40:33.324Z,165
2018-08-20T10:41:35.015Z,140
2018-08-20T10:42:36.434Z,145
2018-08-20T10:43:38.134Z,230
2018-08-20T10:44:39.492Z,220
2018-08-20T10:45:41.482Z,180
2018-08-20T10:46:42.886Z,175
2018-08-20T10:47:44.515Z,180
2018-08-20T10:48:45.925Z,175
2018-08-20T10:49:47.572Z,160
2018-08-20T10:50:48.984Z,140
2018-08-20T10:51:50.633Z,155
2018-08-20T10:52:52.037Z,150
2018-08-20T10:53:53.500Z,130
2018-08-20T10:54:55.157Z,135
2018-08-20T10:55:57.047Z,165
2018-08-20T10:56:58.405Z,155
2018-08-20T10:58:00.278Z,145
2018-08-20T10:59:01.692Z,110
2018-08-20T11:00:03.311Z,125
2018-08-20T11:01:04.721Z,155
2018-08-20T11:02:06.402Z,140
2018-08-20T11:03:07.675Z,155
2018-08-20T11:04:10.052Z,155
2018-08-20T11:05:11.800Z,140
2018-08-20T11:06:13.458Z,125
2018-08-20T11:07:14.871Z,125
2018-08-20T11:08:16.548Z,135
2018-08-20T11:09:17.952Z,130
2018-08-20T11:10:19.632Z,135
2018-08-20T11:11:21.050Z,120
2018-08-20T11:12:22.718Z,110
2018-08-20T11:13:24.126Z,140
2018-08-20T11:14:25.538Z,150
2018-08-20T11:15:27.441Z,140
2018-08-20T11:16:28.848Z,140
2018-08-20T11:17:30.318Z,190
2018-08-20T11:18:32.463Z,205
2018-08-20T11:19:33.776Z,215
2018-08-20T11:20:35.186Z,190
2018-08-20T11:21:36.781Z,195
2018-08-20T11:22:38.171Z,155
2018-08-20T11:23:39.578Z,90
2018-08-20T11:24:41.261Z,95
2018-08-20T11:25:42.666Z,120
2018-08-20T11:26:44.249Z,105
2018-08-20T11:27:45.653Z,90
2018-08-20T11:28:47.067Z,100
2018-08-20T11:29:48.641Z,95
2018-08-20T11:30:50.054Z,85
2018-08-20T11:31:51.461Z,80
2018-08-20T11:32:52.957Z,75
2018-08-20T11:33:54.363Z,65
2018-08-20T11:34:55.792Z,60
2018-08-20T11:35:57.284Z,50
2018-08-20T11:36:58.687Z,50
2018-08-20T11:38:00.094Z,50
2018-08-20T11:39:01.598Z,55
2018-08-20T11:40:03.007Z,55
2018-08-20T11:41:04.690Z,50
2018-08-20T11:42:06.108Z,50
2018-08-20T11:43:07.777Z,55
2018-08-20T11:44:09.213Z,65
2018-08-20T11:45:10.634Z,70
2018-08-20T11:46:12.312Z,80
2018-08-20T11:47:13.719Z,75
2018-08-20T11:48:15.122Z,60
2018-08-20T11:49:16.635Z,50
2018-08-20T11:50:18.073Z,50
2018-08-20T11:51:19.465Z,45
2018-08-20T11:52:21.321Z,50
2018-08-20T11:53:23.489Z,45
2018-08-20T11:54:25.047Z,45
2018-08-20T11:55:26.836Z,40
2018-08-20T11:56:28.334Z,40
2018-08-20T11:57:29.745Z,40
2018-08-20T11:58:31.150Z,50
2018-08-20T11:59:33.075Z,55
2018-08-20T12:00:34.481Z,65
2018-08-20T12:01:35.886Z,75
2018-08-20T12:02:37.395Z,65
2018-08-20T12:03:38.821Z,60
2018-08-20T12:04:40.233Z,50
2018-08-20T12:05:41.715Z,30
2018-08-20T12:06:43.120Z,20
2018-08-20T12:07:44.940Z,25
2018-08-20T12:08:46.211Z,25
2018-08-20T12:09:47.887Z,25
2018-08-20T12:10:49.305Z,20
2018-08-20T12:11:50.972Z,20
2018-08-20T12:12:52.378Z,20
2018-08-20T12:13:54.057Z,20
2018-08-20T12:14:55.465Z,20
2018-08-20T12:15:57.147Z,20
2018-08-20T12:16:58.537Z,20
2018-08-20T12:18:00.235Z,25
2018-08-20T12:19:01.638Z,20
2018-08-20T12:20:03.041Z,25
2018-08-20T12:21:04.551Z,25
2018-08-20T12:22:06.337Z,25
2018-08-20T12:23:07.773Z,25
2018-08-20T12:24:09.282Z,25
2018-08-20T12:25:10.691Z,25
2018-08-20T12:26:12.096Z,25
2018-08-20T12:27:13.540Z,30
2018-08-20T12:28:14.950Z,30
2018-08-20T12:29:16.353Z,35
2018-08-20T12:30:17.865Z,40
2018-08-20T12:31:19.269Z,50
2018-08-20T12:32:20.673Z,50
2018-08-20T12:33:22.182Z,55
2018-08-20T12:34:23.647Z,60
2018-08-20T12:35:24.960Z,70
2018-08-20T12:36:26.505Z,80
2018-08-20T12:37:27.922Z,95
2018-08-20T12:38:29.342Z,105
2018-08-20T12:39:30.856Z,105
2018-08-20T12:40:32.341Z,110
2018-08-20T12:41:34.059Z,115
2018-08-20T12:42:35.559Z,120
2018-08-20T12:43:36.966Z,125
2018-08-20T12:44:38.374Z,130
2018-08-20T12:45:39.879Z,135
2018-08-20T12:46:41.543Z,135
2018-08-20T12:47:43.025Z,130
2018-08-20T12:48:44.437Z,120
2018-08-20T12:49:46.116Z,110
2018-08-20T12:50:47.531Z,105
2018-08-20T12:51:49.201Z,100
2018-08-20T12:52:50.632Z,105
2018-08-20T12:53:52.291Z,115
2018-08-20T12:54:53.699Z,125
2018-08-20T12:55:55.433Z,140
2018-08-20T12:56:56.841Z,150
2018-08-20T12:57:58.454Z,160
2018-08-20T12:58:59.862Z,170
2018-08-20T13:00:01.271Z,165
2018-08-20T13:01:02.838Z,155
2018-08-20T13:02:04.187Z,145
2018-08-20T13:03:05.597Z,140
2018-08-20T13:04:07.178Z,140
2018-08-20T13:05:08.584Z,140
2018-08-20T13:06:10.365Z,145
2018-08-20T13:07:12.036Z,145
2018-08-20T13:08:13.442Z,145
2018-08-20T13:09:14.857Z,150
2018-08-20T13:10:16.357Z,150
2018-08-20T13:11:17.763Z,145
2018-08-20T13:12:19.178Z,145
2018-08-20T13:13:20.677Z,135
2018-08-20T13:14:22.125Z,135
2018-08-20T13:15:23.496Z,135
2018-08-20T13:16:25.127Z,125
2018-08-20T13:17:26.405Z,120
2018-08-20T13:18:28.085Z,115
2018-08-20T13:19:29.493Z,115
2018-08-20T13:20:31.194Z,115
2018-08-20T13:21:32.600Z,115
2018-08-20T13:22:34.254Z,115
2018-08-20T13:23:35.664Z,110
2018-08-20T13:24:37.075Z,110
2018-08-20T13:25:38.576Z,120
2018-08-20T13:26:40.015Z,125
2018-08-20T13:27:41.429Z,135
2018-08-20T13:28:43.102Z,135
2018-08-20T13:29:44.521Z,135
2018-08-20T13:30:45.921Z,135
2018-08-20T13:31:47.430Z,140
2018-08-20T13:32:48.834Z,145
2018-08-20T13:33:50.513Z,150
2018-08-20T13:34:51.924Z,155
2018-08-20T13:35:53.599Z,155
2018-08-20T13:36:55.025Z,155
2018-08-20T13:37:56.686Z,150
2018-08-20T13:38:58.098Z,150
2018-08-20T13:39:59.768Z,150
2018-08-20T13:41:01.177Z,145
2018-08-20T13:42:02.589Z,145
2018-08-20T13:43:04.094Z,145
2018-08-20T13:44:05.605Z,140
2018-08-20T13:45:06.916Z,130
2018-08-20T13:46:08.411Z,125
2018-08-20T13:47:09.816Z,110
2018-08-20T13:48:11.224Z,105
2018-08-20T13:49:12.738Z,95
2018-08-20T13:50:14.230Z,90
2018-08-20T13:51:15.547Z,95
2018-08-20T13:52:17.094Z,75
2018-08-20T13:53:18.456Z,80
2018-08-20T13:54:19.899Z,85
2018-08-20T13:55:21.578Z,65
2018-08-20T13:56:23.355Z,55
2018-08-20T13:57:24.867Z,60
2018-08-20T13:58:26.274Z,75
2018-08-20T13:59:27.754Z,95
2018-08-20T14:00:29.153Z,120
2018-08-20T14:01:30.630Z,115
2018-08-20T14:02:32.036Z,110
2018-08-20T14:03:33.545Z,95
2018-08-20T14:04:34.876Z,90
2018-08-20T14:05:36.390Z,80
2018-08-20T14:06:38.193Z,75
2018-08-20T14:07:39.701Z,60
2018-08-20T14:08:41.093Z,55
2018-08-20T14:09:42.795Z,70
2018-08-20T14:10:44.199Z,85
2018-08-20T14:11:45.853Z,95
2018-08-20T14:12:47.270Z,95
2018-08-20T14:13:48.936Z,95
2018-08-20T14:14:50.344Z,95
2018-08-20T14:15:51.847Z,100
2018-08-20T14:16:53.231Z,95
2018-08-20T14:17:54.649Z,80
2018-08-20T14:18:56.142Z,65
2018-08-20T14:19:57.547Z,55
2018-08-20T14:20:59.042Z,45
2018-08-20T14:22:00.665Z,45
2018-08-20T14:23:02.069Z,45
2018-08-20T14:24:03.751Z,45
2018-08-20T14:25:05.229Z,50
2018-08-20T14:26:06.868Z,55
2018-08-20T14:27:08.273Z,60
2018-08-20T14:28:09.923Z,50
2018-08-20T14:29:11.328Z,45
2018-08-20T14:30:12.802Z,45
2018-08-20T14:31:14.214Z,70
2018-08-20T14:32:15.684Z,95
2018-08-20T14:33:17.094Z,100
2018-08-20T14:34:18.583Z,100
2018-08-20T14:35:19.986Z,100
2018-08-20T14:36:21.655Z,95
2018-08-20T14:37:23.058Z,90
2018-08-20T14:38:24.531Z,80
2018-08-20T14:39:26.007Z,75
2018-08-20T14:40:27.617Z,75
2018-08-20T14:41:29.056Z,80
2018-08-20T14:42:30.465Z,80
2018-08-20T14:43:31.941Z,85
2018-08-20T14:44:33.345Z,85
2018-08-20T14:45:34.752Z,80
2018-08-20T14:46:36.259Z,70
2018-08-20T14:47:38.065Z,65
2018-08-20T14:48:39.448Z,70
2018-08-20T14:49:41.021Z,85